Weather reports worldwide

Advertisment
Dona Mencia, Spain (8412): temperature & dewpoint: 07.08.2020 01:00:00 - 13.08.2020 01:00:00 (CEST)Dona Mencia, Spain (8412): wind speed & gusts: 07.08.2020 01:00:00 - 13.08.2020 01:00:00 (CEST)Dona Mencia, Spain (8412): wind direction: 07.08.2020 01:00:00 - 13.08.2020 01:00:00 (CEST)Dona Mencia, Spain (8412): precipitation: 07.08.2020 01:00:00 - 13.08.2020 01:00:00 (CEST)
Date & Time tt [°C] td [°C] ff [km/h] ff [kn] fx [km/h] fx [kn] dd rr [mm]
13.08.2020 01:00:00 - - - - - - - -
13.08.2020 00:00:00 - - - - - - - -
12.08.2020 23:00:00 - - - - - - - -
12.08.2020 22:00:00 - - - - - - - -
12.08.2020 21:00:00 - - - - - - - -
12.08.2020 20:00:00 - - - - - - - -
12.08.2020 19:00:00 - - - - - - - -
12.08.2020 18:00:00 - - - - - - - -
12.08.2020 17:00:00 - - - - - - - -
12.08.2020 16:00:00 - - - - - - - -
12.08.2020 15:00:00 - - - - - - - -
12.08.2020 14:00:00 - - - - - - - -
12.08.2020 13:00:00 - - - - - - - -
12.08.2020 12:00:00 - - - - - - - -
12.08.2020 11:00:00 - - - - - - - -
12.08.2020 10:00:00 - - - - - - - -
12.08.2020 09:00:00 - - - - - - - -
12.08.2020 08:00:00 - - - - - - - -
12.08.2020 07:00:00 - - - - - - - -
12.08.2020 06:00:00 - - - - - - - -
12.08.2020 05:00:00 - - - - - - - -
12.08.2020 04:00:00 - - - - - - - -
12.08.2020 03:00:00 - - - - - - - -
12.08.2020 02:00:00 - - - - - - - -
12.08.2020 01:00:00 - - - - - - - -
12.08.2020 00:00:00 - - - - - - - -
11.08.2020 23:00:00 - - - - - - - -
11.08.2020 22:00:00 - - - - - - - -
11.08.2020 21:00:00 - - - - - - - -
11.08.2020 20:00:00 - - - - - - - -
11.08.2020 19:00:00 - - - - - - - -
11.08.2020 18:00:00 - - - - - - - -
11.08.2020 17:00:00 - - - - - - - -
11.08.2020 16:00:00 - - - - - - - -
11.08.2020 15:00:00 - - - - - - - -
11.08.2020 14:00:00 - - - - - - - -
11.08.2020 13:00:00 - - - - - - - -
11.08.2020 12:00:00 - - - - - - - -
11.08.2020 11:00:00 - - - - - - - -
11.08.2020 10:00:00 - - - - - - - -
11.08.2020 09:00:00 - - - - - - - -
11.08.2020 08:00:00 - - - - - - - -
11.08.2020 07:00:00 - - - - - - - -
11.08.2020 06:00:00 - - - - - - - -
11.08.2020 05:00:00 - - - - - - - -
11.08.2020 04:00:00 - - - - - - - -
11.08.2020 03:00:00 - - - - - - - -
11.08.2020 02:00:00 - - - - - - - -
11.08.2020 01:00:00 - - - - - - - -
11.08.2020 00:00:00 - - - - - - - -
10.08.2020 23:00:00 - - - - - - - -
10.08.2020 22:00:00 - - - - - - - -
10.08.2020 21:00:00 - - - - - - - -
10.08.2020 20:00:00 - - - - - - - -
10.08.2020 19:00:00 - - - - - - - -
10.08.2020 18:00:00 - - - - - - - -
10.08.2020 17:00:00 - - - - - - - -
10.08.2020 16:00:00 - - - - - - - -
10.08.2020 15:00:00 - - - - - - - -
10.08.2020 14:00:00 - - - - - - - -
10.08.2020 13:00:00 - - - - - - - -
10.08.2020 12:00:00 - - - - - - - -
10.08.2020 11:00:00 - - - - - - - -
10.08.2020 10:00:00 - - - - - - - -
10.08.2020 09:00:00 - - - - - - - -
10.08.2020 08:00:00 - - - - - - - -
10.08.2020 07:00:00 25,2 16,6 6 4 11 6 NW 0,0
10.08.2020 06:00:00 26,2 17,0 2 1 4 2 NE 0,0
10.08.2020 05:00:00 26,2 17,0 3 2 6 4 NE 0,0
10.08.2020 04:00:00 26,2 17,0 3 1 13 7 N 0,0
10.08.2020 03:00:00 26,3 16,0 7 4 16 9 NNW 0,0
10.08.2020 02:00:00 27,9 11,0 4 2 13 7 W -
10.08.2020 01:00:00 28,4 11,9 6 3 14 8 WNW 0,0
10.08.2020 00:00:00 29,3 12,2 8 4 12 7 WNW 0,0
09.08.2020 23:00:00 29,9 13,7 8 5 16 8 WNW 0,0
09.08.2020 22:00:00 31,7 13,9 6 3 10 6 WNW 0,0
09.08.2020 21:00:00 33,4 14,4 5 3 16 9 W 0,0
09.08.2020 20:00:00 35,5 15,3 11 6 29 16 WNW -
09.08.2020 19:00:00 37,4 16,4 15 8 34 19 W 0,0
09.08.2020 18:00:00 37,9 16,8 18 10 32 17 W 0,0
09.08.2020 17:00:00 38,4 17,2 17 9 35 19 WNW 0,0
09.08.2020 16:00:00 38,2 17,1 16 8 29 16 NW 0,0
09.08.2020 15:00:00 37,2 17,2 8 5 20 11 NW 0,0
09.08.2020 14:00:00 35,8 16,6 4 2 16 9 NW -
09.08.2020 13:00:00 33,6 16,0 5 3 13 7 WNW 0,0
09.08.2020 12:00:00 31,7 14,8 5 3 13 7 WNW 0,0
09.08.2020 11:00:00 29,4 13,6 4 2 10 5 SSE 0,0
09.08.2020 10:00:00 26,4 13,2 1 1 13 7 WNW 0,0
09.08.2020 09:00:00 25,1 10,9 9 5 16 9 E 0,0
09.08.2020 08:00:00 23,9 10,5 2 1 12 6 NNE -
09.08.2020 07:00:00 24,5 10,4 8 4 14 7 NNW 0,0
09.08.2020 06:00:00 25,5 9,7 5 3 19 10 NNW 0,0
09.08.2020 05:00:00 26,3 9,2 6 4 10 5 NW 0,0
09.08.2020 04:00:00 27,7 9,6 2 1 6 4 N 0,0
09.08.2020 03:00:00 27,6 9,4 2 1 15 8 ENE 0,0
09.08.2020 02:00:00 28,8 10,4 9 5 23 12 NW -
09.08.2020 01:00:00 28,0 10,2 8 4 18 10 NNW 0,0
09.08.2020 00:00:00 29,3 10,9 9 5 19 10 NNW 0,0
08.08.2020 23:00:00 30,4 11,9 8 5 17 9 NNW 0,0
08.08.2020 22:00:00 32,1 12,8 11 6 26 14 NW 0,0
08.08.2020 21:00:00 33,6 13,7 11 6 21 12 NW 0,0
08.08.2020 20:00:00 36,3 15,4 17 9 28 15 W -
08.08.2020 19:00:00 37,6 18,1 12 7 26 14 W 0,0
08.08.2020 18:00:00 37,2 17,8 13 7 39 21 WNW 0,0
08.08.2020 17:00:00 37,0 18,1 16 9 31 17 W 0,0
08.08.2020 16:00:00 36,5 18,1 13 7 27 15 WNW 0,0
08.08.2020 15:00:00 36,5 18,1 15 8 31 17 WNW 0,0
08.08.2020 14:00:00 37,7 17,7 4 2 24 13 S -
08.08.2020 13:00:00 37,6 17,6 12 6 26 14 ESE 0,0
08.08.2020 12:00:00 31,8 16,9 14 8 35 19 ESE 0,0
08.08.2020 11:00:00 28,7 15,6 16 9 29 16 E 0,0
08.08.2020 10:00:00 27,6 14,6 2 1 25 13 E 0,0
08.08.2020 09:00:00 26,4 13,9 15 8 21 11 E 0,0
08.08.2020 08:00:00 24,1 13,7 11 6 29 16 NW -
08.08.2020 07:00:00 25,2 13,1 5 3 19 10 NW 0,0
08.08.2020 06:00:00 27,6 14,6 13 7 29 16 E 0,0
08.08.2020 05:00:00 26,4 13,9 20 11 29 16 E 0,0
08.08.2020 04:00:00 25,8 14,2 16 9 23 13 E 0,0
08.08.2020 03:00:00 23,8 13,4 1 1 11 6 E 0,0
08.08.2020 02:00:00 24,5 13,1 6 3 16 9 NW -
08.08.2020 01:00:00 25,9 13,4 12 7 23 12 NW 0,0
08.08.2020 00:00:00 26,8 12,8 6 3 16 9 NNW 0,0
07.08.2020 23:00:00 27,7 13,3 9 5 18 10 WNW 0,0
07.08.2020 22:00:00 29,3 13,6 10 5 20 11 NW 0,0
07.08.2020 21:00:00 31,7 15,6 13 7 27 15 WNW 0,0
07.08.2020 20:00:00 34,0 17,2 17 9 30 16 WNW -
07.08.2020 19:00:00 36,4 18,9 16 9 31 17 W 0,0
07.08.2020 18:00:00 36,5 19,0 18 10 31 17 W 0,0
07.08.2020 17:00:00 36,6 19,1 16 9 29 16 WNW 0,0
07.08.2020 16:00:00 36,5 19,5 14 8 25 13 WNW 0,0
07.08.2020 15:00:00 35,0 19,0 11 6 25 14 WNW 0,0
07.08.2020 14:00:00 33,2 18,5 8 4 20 11 WNW -
07.08.2020 13:00:00 32,2 18,0 8 4 14 7 WNW 0,0
07.08.2020 12:00:00 30,6 17,3 6 3 12 7 WNW 0,0
07.08.2020 11:00:00 29,3 16,5 0 0 10 6 NNE 0,0
07.08.2020 10:00:00 28,4 16,3 9 5 16 9 E 0,0
07.08.2020 09:00:00 25,6 14,7 6 3 18 10 ESE 0,0
07.08.2020 08:00:00 24,6 13,8 5 3 22 12 E -
07.08.2020 07:00:00 24,3 13,6 12 6 27 15 ESE 0,0
07.08.2020 06:00:00 24,5 13,7 12 7 23 12 E 0,0
07.08.2020 05:00:00 24,3 13,6 14 7 20 11 E 0,0
07.08.2020 04:00:00 24,2 12,8 5 3 20 11 E 0,0
07.08.2020 03:00:00 24,9 12,8 4 2 19 10 E 0,0
07.08.2020 02:00:00 26,6 13,7 4 2 19 10 ENE -
07.08.2020 01:00:00 26,9 13,7 5 3 23 12 N 0,0

tt = temperature
td = dewpoint
ff = wind speed
fx = gusts
dd = wind direction
rr = precipitation

Next stations